createdAt,value
2023-03-27T00:00:15.640Z,8.44
2023-03-27T00:03:04.428Z,8.37
2023-03-27T00:05:34.086Z,8.36
2023-03-27T00:08:03.250Z,8.37
2023-03-27T00:10:31.914Z,8.38
2023-03-27T00:13:02.734Z,8.42
2023-03-27T00:15:32.636Z,8.48
2023-03-27T00:18:03.332Z,8.51
2023-03-27T00:20:36.575Z,8.55
2023-03-27T00:23:06.160Z,8.57
2023-03-27T00:25:35.035Z,8.59
2023-03-27T00:28:03.758Z,8.61
2023-03-27T00:30:33.054Z,8.64
2023-03-27T00:33:01.946Z,8.66
2023-03-27T00:35:30.878Z,8.69
2023-03-27T00:38:00.504Z,8.71
2023-03-27T00:40:32.303Z,8.70
2023-03-27T00:43:00.334Z,8.67
2023-03-27T00:45:33.452Z,8.62
2023-03-27T00:48:05.921Z,8.58
2023-03-27T00:50:38.782Z,8.56
2023-03-27T00:53:12.427Z,8.52
2023-03-27T00:55:43.970Z,8.49
2023-03-27T00:58:17.309Z,8.47
2023-03-27T01:00:49.096Z,8.47
2023-03-27T01:03:19.713Z,8.48
2023-03-27T01:05:50.337Z,8.49
2023-03-27T01:08:20.463Z,8.48
2023-03-27T01:10:58.973Z,8.49
2023-03-27T01:13:41.698Z,8.47
2023-03-27T01:16:18.447Z,8.45
2023-03-27T01:18:59.201Z,8.41
2023-03-27T01:22:00.423Z,8.38
2023-03-27T01:24:59.720Z,8.33
2023-03-27T01:27:48.896Z,8.29
2023-03-27T01:30:19.655Z,8.27
2023-03-27T01:33:25.343Z,8.29
2023-03-27T01:36:25.394Z,8.34
2023-03-27T01:39:17.714Z,8.35
2023-03-27T01:41:51.495Z,8.37
2023-03-27T01:44:43.837Z,8.40
2023-03-27T01:47:32.704Z,8.44
2023-03-27T01:50:08.987Z,8.43
2023-03-27T01:52:40.778Z,8.45
2023-03-27T01:55:15.216Z,8.45
2023-03-27T01:57:49.240Z,8.43
2023-03-27T02:00:23.458Z,8.42
2023-03-27T02:02:57.422Z,8.42
2023-03-27T02:05:33.116Z,8.38
2023-03-27T02:08:08.891Z,8.31
2023-03-27T02:10:43.224Z,8.25
2023-03-27T02:13:20.888Z,8.23
2023-03-27T02:15:52.364Z,8.22
2023-03-27T02:18:28.130Z,8.17
2023-03-27T02:20:57.265Z,8.14
2023-03-27T02:23:30.358Z,8.11
2023-03-27T02:26:01.137Z,8.10
2023-03-27T02:28:48.918Z,8.08
2023-03-27T02:31:35.077Z,8.07
2023-03-27T02:34:31.049Z,8.05
2023-03-27T02:37:08.765Z,8.03
2023-03-27T02:40:13.780Z,8.05
2023-03-27T02:42:53.711Z,8.04
2023-03-27T02:45:29.108Z,8.04
2023-03-27T02:48:02.823Z,8.01
2023-03-27T02:50:37.972Z,7.98
2023-03-27T02:53:15.764Z,7.95
2023-03-27T02:55:50.037Z,7.90
2023-03-27T02:58:24.628Z,7.84
2023-03-27T03:01:08.682Z,7.78
2023-03-27T03:04:06.998Z,7.75
2023-03-27T03:07:03.698Z,7.75
2023-03-27T03:09:32.649Z,7.77
2023-03-27T03:12:02.033Z,7.77
2023-03-27T03:14:40.297Z,7.76
2023-03-27T03:17:08.939Z,7.74
2023-03-27T03:19:37.536Z,7.72
2023-03-27T03:22:06.851Z,7.70
2023-03-27T03:24:36.895Z,7.68
2023-03-27T03:27:06.411Z,7.68
2023-03-27T03:29:43.699Z,7.66
2023-03-27T03:32:17.697Z,7.61
2023-03-27T03:34:48.186Z,7.58
2023-03-27T03:37:17.380Z,7.55
2023-03-27T03:39:46.537Z,7.54
2023-03-27T03:42:22.461Z,7.54
2023-03-27T03:44:53.366Z,7.52
2023-03-27T03:47:23.330Z,7.50
2023-03-27T03:49:52.087Z,7.47
2023-03-27T03:52:20.985Z,7.46
2023-03-27T03:54:49.622Z,7.46
2023-03-27T03:57:18.365Z,7.46
2023-03-27T03:59:54.890Z,7.47
2023-03-27T04:02:31.621Z,7.44
2023-03-27T04:05:08.767Z,7.40
2023-03-27T04:07:40.580Z,7.39
2023-03-27T04:10:29.096Z,7.35
2023-03-27T04:12:58.893Z,7.29
2023-03-27T04:15:52.163Z,7.26
2023-03-27T04:18:31.857Z,7.22
2023-03-27T04:21:02.531Z,7.17
2023-03-27T04:23:31.451Z,7.14
2023-03-27T04:26:01.468Z,7.15
2023-03-27T04:28:41.527Z,7.11
2023-03-27T04:31:26.481Z,7.10
2023-03-27T04:34:19.572Z,7.09
2023-03-27T04:37:11.458Z,7.07
2023-03-27T04:39:42.920Z,7.03
2023-03-27T04:42:12.102Z,6.99
2023-03-27T04:44:41.265Z,6.97
2023-03-27T04:47:10.090Z,6.96
2023-03-27T04:49:41.745Z,7.00
2023-03-27T04:52:20.796Z,7.01
2023-03-27T04:54:49.690Z,7.02
2023-03-27T04:57:21.476Z,7.04
2023-03-27T04:59:50.864Z,7.01
2023-03-27T05:02:57.753Z,6.96
2023-03-27T05:05:35.996Z,6.94
2023-03-27T05:08:06.852Z,6.89
2023-03-27T05:10:35.809Z,6.84
2023-03-27T05:13:04.557Z,6.82
2023-03-27T05:15:33.416Z,6.82
2023-03-27T05:18:03.887Z,6.80
2023-03-27T05:20:33.602Z,6.77
2023-03-27T05:23:06.130Z,6.75
2023-03-27T05:25:38.860Z,6.73
2023-03-27T05:28:11.326Z,6.71
2023-03-27T05:30:41.614Z,6.68
2023-03-27T05:33:16.961Z,6.66
2023-03-27T05:35:47.633Z,6.64
2023-03-27T05:38:16.929Z,6.62
2023-03-27T05:41:09.725Z,6.61
2023-03-27T05:43:41.041Z,6.58
2023-03-27T05:46:09.737Z,6.55
2023-03-27T05:48:43.886Z,6.48
2023-03-27T05:51:12.632Z,6.42
2023-03-27T05:53:41.522Z,6.36
2023-03-27T05:56:25.148Z,6.29
2023-03-27T05:58:59.982Z,6.24
2023-03-27T06:01:28.885Z,6.19
2023-03-27T06:03:59.576Z,6.16
2023-03-27T06:06:32.858Z,6.10
2023-03-27T06:09:03.985Z,6.03
2023-03-27T06:11:32.976Z,5.96
2023-03-27T06:14:01.839Z,5.90
2023-03-27T06:16:46.173Z,5.86
2023-03-27T06:19:33.356Z,5.83
2023-03-27T06:22:02.599Z,5.81
2023-03-27T06:24:31.624Z,5.78
2023-03-27T06:27:03.150Z,5.75
2023-03-27T06:29:33.108Z,5.73
2023-03-27T06:32:01.967Z,5.70
2023-03-27T06:34:35.401Z,5.64
2023-03-27T06:37:12.850Z,5.57
2023-03-27T06:39:43.564Z,5.46
2023-03-27T06:42:12.481Z,5.35
2023-03-27T06:44:54.034Z,5.23
2023-03-27T06:47:54.401Z,5.10
2023-03-27T06:50:39.988Z,4.96
2023-03-27T06:53:19.716Z,4.85
2023-03-27T06:55:55.820Z,4.76
2023-03-27T06:58:25.474Z,4.69
2023-03-27T07:00:54.774Z,4.63
2023-03-27T07:03:25.102Z,4.56
2023-03-27T07:05:53.859Z,4.50
2023-03-27T07:08:25.399Z,4.48
2023-03-27T07:11:10.779Z,4.49
2023-03-27T07:13:45.193Z,4.50
2023-03-27T07:16:22.025Z,4.49
2023-03-27T07:18:50.939Z,4.47
2023-03-27T07:21:19.958Z,4.38
2023-03-27T07:23:48.847Z,4.29
2023-03-27T07:26:22.541Z,4.17
2023-03-27T07:29:02.455Z,4.06
2023-03-27T07:31:51.060Z,3.94
2023-03-27T07:34:20.419Z,3.84
2023-03-27T07:37:25.216Z,3.73
2023-03-27T07:40:13.509Z,3.64
2023-03-27T07:42:45.403Z,3.55
2023-03-27T07:45:22.073Z,3.42
2023-03-27T07:47:51.894Z,3.30
2023-03-27T07:50:21.526Z,3.21
2023-03-27T07:52:50.598Z,3.13
2023-03-27T07:55:22.443Z,3.00
2023-03-27T07:58:03.458Z,2.85
2023-03-27T08:00:35.735Z,2.76
2023-03-27T08:03:13.952Z,2.68
2023-03-27T08:05:53.850Z,2.57
2023-03-27T08:08:23.306Z,2.51
2023-03-27T08:10:59.678Z,2.44
2023-03-27T08:13:32.121Z,2.31
2023-03-27T08:16:04.277Z,2.16
2023-03-27T08:18:33.114Z,2.05
2023-03-27T08:21:03.054Z,1.93
2023-03-27T08:23:33.178Z,1.85
2023-03-27T08:26:20.365Z,1.79
2023-03-27T08:28:55.571Z,1.76
2023-03-27T08:31:28.519Z,1.72
2023-03-27T08:34:00.631Z,1.66
2023-03-27T08:36:33.856Z,1.61
2023-03-27T08:39:04.373Z,1.56
2023-03-27T08:41:44.010Z,1.53
2023-03-27T08:44:22.798Z,1.53
2023-03-27T08:46:55.467Z,1.53
2023-03-27T08:49:30.703Z,1.50
2023-03-27T08:52:24.644Z,1.44
2023-03-27T08:54:58.736Z,1.42
2023-03-27T08:57:40.375Z,1.44
2023-03-27T09:00:27.396Z,1.47
2023-03-27T09:03:15.398Z,1.49
2023-03-27T09:05:49.408Z,1.53
2023-03-27T09:08:33.344Z,1.56
2023-03-27T09:11:19.406Z,1.57
2023-03-27T09:13:56.293Z,1.59
2023-03-27T09:16:31.345Z,1.59
2023-03-27T09:19:13.148Z,1.60
2023-03-27T09:21:46.804Z,1.61
2023-03-27T09:24:26.829Z,1.61
2023-03-27T09:27:18.911Z,1.62
2023-03-27T09:30:14.365Z,1.65
2023-03-27T09:32:48.771Z,1.73
2023-03-27T09:35:19.851Z,1.77
2023-03-27T09:37:53.442Z,1.81
2023-03-27T09:40:32.975Z,1.86
2023-03-27T09:43:08.461Z,1.92
2023-03-27T09:45:40.160Z,1.97
2023-03-27T09:48:19.568Z,2.03
2023-03-27T09:50:49.887Z,2.08
2023-03-27T09:53:30.768Z,2.12
2023-03-27T09:56:16.967Z,2.13
2023-03-27T09:58:53.254Z,2.17
2023-03-27T10:01:29.620Z,2.19
2023-03-27T10:04:13.760Z,2.23
2023-03-27T10:06:46.938Z,2.29
2023-03-27T10:09:25.868Z,2.37
2023-03-27T10:12:09.967Z,2.45
2023-03-27T10:14:42.007Z,2.50
2023-03-27T10:17:24.045Z,2.54
2023-03-27T10:20:08.240Z,2.55
2023-03-27T10:22:40.601Z,2.57
2023-03-27T10:25:17.228Z,2.59
2023-03-27T10:28:18.177Z,2.62
2023-03-27T10:31:09.311Z,2.64
2023-03-27T10:33:51.702Z,2.65
2023-03-27T10:36:40.124Z,2.67
2023-03-27T10:39:15.813Z,2.67
2023-03-27T10:42:08.217Z,2.63
2023-03-27T10:44:38.263Z,2.61
2023-03-27T10:47:17.655Z,2.59
2023-03-27T10:49:53.197Z,2.64
2023-03-27T10:52:37.042Z,2.69
2023-03-27T10:55:30.754Z,2.73
2023-03-27T10:58:05.186Z,2.73
2023-03-27T11:00:40.915Z,2.76
2023-03-27T11:03:17.374Z,2.79
2023-03-27T11:05:48.849Z,2.80
2023-03-27T11:08:44.655Z,2.82
2023-03-27T11:11:19.592Z,2.88
2023-03-27T11:13:50.430Z,2.93
2023-03-27T11:16:25.905Z,3.00
2023-03-27T11:19:32.916Z,3.03
2023-03-27T11:22:33.005Z,3.04
2023-03-27T11:25:07.656Z,3.13
2023-03-27T11:27:40.960Z,3.21
2023-03-27T11:30:33.665Z,3.30
2023-03-27T11:33:16.333Z,3.35
2023-03-27T11:35:52.688Z,3.37
2023-03-27T11:38:46.604Z,3.44
2023-03-27T11:41:15.697Z,3.53
2023-03-27T11:43:44.701Z,3.60
2023-03-27T11:46:46.761Z,3.68
2023-03-27T11:49:30.887Z,3.71
2023-03-27T11:52:12.209Z,3.72
2023-03-27T11:54:56.096Z,3.78
2023-03-27T11:57:27.582Z,3.82
2023-03-27T12:00:27.593Z,3.84
2023-03-27T12:03:33.238Z,3.85
2023-03-27T12:06:12.938Z,3.88
2023-03-27T12:08:59.713Z,3.87
2023-03-27T12:11:29.842Z,3.88
2023-03-27T12:14:40.585Z,3.92
2023-03-27T12:17:28.045Z,3.97
2023-03-27T12:20:27.412Z,3.99
2023-03-27T12:23:16.296Z,3.95
2023-03-27T12:26:23.194Z,3.91
2023-03-27T12:29:23.523Z,3.94
2023-03-27T12:32:16.678Z,4.04
2023-03-27T12:34:54.386Z,4.15
2023-03-27T12:37:30.409Z,4.23
2023-03-27T12:40:00.692Z,4.20
2023-03-27T12:42:51.151Z,4.21
2023-03-27T12:45:22.893Z,4.22
2023-03-27T12:48:19.192Z,4.23
2023-03-27T12:50:57.789Z,4.27
2023-03-27T12:53:53.795Z,4.28
2023-03-27T12:56:29.705Z,4.27
2023-03-27T12:58:59.546Z,4.28
2023-03-27T13:01:54.861Z,4.31
2023-03-27T13:04:42.065Z,4.31
2023-03-27T13:07:20.974Z,4.32
2023-03-27T13:10:20.060Z,4.35
2023-03-27T13:13:09.997Z,4.38
2023-03-27T13:16:01.813Z,4.39
2023-03-27T13:18:58.639Z,4.43
2023-03-27T13:21:38.854Z,4.47
2023-03-27T13:24:26.101Z,4.45
2023-03-27T13:27:11.763Z,4.39
2023-03-27T13:29:40.921Z,4.35
2023-03-27T13:32:32.159Z,4.42
2023-03-27T13:35:33.644Z,4.43
2023-03-27T13:38:03.771Z,4.42
2023-03-27T13:40:49.203Z,4.45
2023-03-27T13:43:25.551Z,4.47
2023-03-27T13:46:05.999Z,4.47
2023-03-27T13:49:15.715Z,4.41
2023-03-27T13:52:13.927Z,4.31
2023-03-27T13:55:20.098Z,4.25
2023-03-27T13:58:24.119Z,4.21
2023-03-27T14:01:31.031Z,4.15
2023-03-27T14:04:21.570Z,4.13
2023-03-27T14:07:26.398Z,4.16
2023-03-27T14:10:23.003Z,4.24
2023-03-27T14:13:17.980Z,4.35
2023-03-27T14:16:08.933Z,4.47
2023-03-27T14:19:15.547Z,4.50
2023-03-27T14:21:55.782Z,4.51
2023-03-27T14:24:32.997Z,4.51
2023-03-27T14:27:23.930Z,4.51
2023-03-27T14:30:07.358Z,4.56
2023-03-27T14:32:39.596Z,4.61
2023-03-27T14:35:28.579Z,4.65
2023-03-27T14:38:18.457Z,4.73
2023-03-27T14:40:51.872Z,4.91
2023-03-27T14:43:28.267Z,5.08
2023-03-27T14:46:06.821Z,5.23
2023-03-27T14:48:39.071Z,5.24
2023-03-27T14:51:12.827Z,5.19
2023-03-27T14:53:44.401Z,5.10
2023-03-27T14:56:26.373Z,5.01
2023-03-27T14:59:00.332Z,4.94
2023-03-27T15:01:35.602Z,4.92
2023-03-27T15:04:07.637Z,4.95
2023-03-27T15:06:37.762Z,4.95
2023-03-27T15:09:15.874Z,4.90
2023-03-27T15:12:06.207Z,4.88
2023-03-27T15:14:37.209Z,4.87
2023-03-27T15:17:09.441Z,4.92
2023-03-27T15:19:47.854Z,4.97
2023-03-27T15:22:23.406Z,5.03
2023-03-27T15:24:55.645Z,5.07
2023-03-27T15:27:30.416Z,5.09
2023-03-27T15:30:03.017Z,5.05
2023-03-27T15:32:41.716Z,4.97
2023-03-27T15:35:17.801Z,4.84
2023-03-27T15:37:47.498Z,4.71
2023-03-27T15:40:40.231Z,4.58
2023-03-27T15:43:22.677Z,4.51
2023-03-27T15:46:11.826Z,4.48
2023-03-27T15:48:44.441Z,4.47
2023-03-27T15:51:27.523Z,4.50
2023-03-27T15:53:56.555Z,4.54
2023-03-27T15:56:28.954Z,4.55
2023-03-27T15:59:01.535Z,4.55
2023-03-27T16:01:33.241Z,4.57
2023-03-27T16:04:07.664Z,4.56
2023-03-27T16:06:40.270Z,4.55
2023-03-27T16:09:22.016Z,4.49
2023-03-27T16:11:53.435Z,4.44
2023-03-27T16:14:28.157Z,4.40
2023-03-27T16:17:18.487Z,4.36
2023-03-27T16:19:53.222Z,4.34
2023-03-27T16:22:25.862Z,4.34
2023-03-27T16:24:55.571Z,4.34
2023-03-27T16:27:27.002Z,4.34
2023-03-27T16:29:55.631Z,4.33
2023-03-27T16:32:24.275Z,4.29
2023-03-27T16:34:53.049Z,4.26
2023-03-27T16:37:24.988Z,4.22
2023-03-27T16:39:54.271Z,4.19
2023-03-27T16:42:26.038Z,4.18
2023-03-27T16:44:55.346Z,4.19
2023-03-27T16:47:24.102Z,4.17
2023-03-27T16:50:10.156Z,4.15
2023-03-27T16:52:39.978Z,4.10
2023-03-27T16:55:12.315Z,4.05
2023-03-27T16:57:40.078Z,4.00
2023-03-27T17:00:11.738Z,3.98
2023-03-27T17:02:41.125Z,3.93
2023-03-27T17:05:10.791Z,3.87
2023-03-27T17:07:41.092Z,3.82
2023-03-27T17:10:10.730Z,3.77
2023-03-27T17:12:40.396Z,3.72
2023-03-27T17:15:10.866Z,3.68
2023-03-27T17:17:39.592Z,3.61
2023-03-27T17:20:09.972Z,3.55
2023-03-27T17:22:38.953Z,3.50
2023-03-27T17:25:09.974Z,3.47
2023-03-27T17:27:38.880Z,3.45
2023-03-27T17:30:09.793Z,3.41
2023-03-27T17:32:39.280Z,3.36
2023-03-27T17:35:10.080Z,3.32
2023-03-27T17:37:38.935Z,3.28
2023-03-27T17:40:10.440Z,3.23
2023-03-27T17:42:40.496Z,3.19
2023-03-27T17:45:10.702Z,3.14
2023-03-27T17:47:39.411Z,3.10
2023-03-27T17:50:09.693Z,3.06
2023-03-27T17:52:38.551Z,3.02
2023-03-27T17:55:08.415Z,2.98
2023-03-27T17:57:37.658Z,2.95
2023-03-27T18:00:09.992Z,2.92
2023-03-27T18:02:41.490Z,2.90
2023-03-27T18:05:10.843Z,2.87
2023-03-27T18:07:42.779Z,2.82
2023-03-27T18:10:16.845Z,2.77
2023-03-27T18:12:46.107Z,2.75
2023-03-27T18:15:35.871Z,2.73
2023-03-27T18:18:09.479Z,2.68
2023-03-27T18:20:40.303Z,2.67
2023-03-27T18:23:11.361Z,2.66
2023-03-27T18:25:44.051Z,2.66
2023-03-27T18:28:15.426Z,2.66
2023-03-27T18:30:46.645Z,2.65
2023-03-27T18:33:17.011Z,2.62
2023-03-27T18:35:47.837Z,2.61
2023-03-27T18:38:17.735Z,2.59
2023-03-27T18:40:50.823Z,2.59
2023-03-27T18:43:22.427Z,2.57
2023-03-27T18:45:57.079Z,2.55
2023-03-27T18:48:29.520Z,2.54
2023-03-27T18:51:02.284Z,2.50
2023-03-27T18:53:54.535Z,2.48
2023-03-27T18:56:40.129Z,2.40
2023-03-27T18:59:23.859Z,2.35
2023-03-27T19:01:57.772Z,2.32
2023-03-27T19:04:46.557Z,2.31
2023-03-27T19:07:45.373Z,2.29
2023-03-27T19:10:36.017Z,2.28
2023-03-27T19:13:44.360Z,2.25
2023-03-27T19:16:35.945Z,2.19
2023-03-27T19:19:32.026Z,2.15
2023-03-27T19:22:30.611Z,2.12
2023-03-27T19:25:26.881Z,2.08
2023-03-27T19:28:12.111Z,2.02
2023-03-27T19:31:07.272Z,1.95
2023-03-27T19:33:46.932Z,1.90
2023-03-27T19:36:18.141Z,1.89
2023-03-27T19:38:47.188Z,1.85
2023-03-27T19:41:15.781Z,1.82
2023-03-27T19:43:44.662Z,1.79
2023-03-27T19:46:16.765Z,1.79
2023-03-27T19:48:46.795Z,1.77
2023-03-27T19:51:27.880Z,1.77
2023-03-27T19:53:56.745Z,1.77
2023-03-27T19:56:27.538Z,1.74
2023-03-27T19:58:56.273Z,1.72
2023-03-27T20:01:27.779Z,1.71
2023-03-27T20:03:56.860Z,1.70
2023-03-27T20:06:28.245Z,1.68
2023-03-27T20:08:59.667Z,1.66
2023-03-27T20:11:28.717Z,1.62
2023-03-27T20:13:57.428Z,1.58
2023-03-27T20:16:27.724Z,1.56
2023-03-27T20:19:02.780Z,1.52
2023-03-27T20:21:34.120Z,1.49
2023-03-27T20:24:03.399Z,1.46
2023-03-27T20:26:38.590Z,1.40
2023-03-27T20:29:13.173Z,1.36
2023-03-27T20:31:42.253Z,1.31
2023-03-27T20:34:11.211Z,1.29
2023-03-27T20:36:40.054Z,1.26
2023-03-27T20:39:32.789Z,1.23
2023-03-27T20:42:01.355Z,1.21
2023-03-27T20:44:34.803Z,1.20
2023-03-27T20:47:11.540Z,1.16
2023-03-27T20:49:42.261Z,1.13
2023-03-27T20:52:12.560Z,1.10
2023-03-27T20:54:41.177Z,1.02
2023-03-27T20:57:12.278Z,0.95
2023-03-27T20:59:41.125Z,0.91
2023-03-27T21:02:15.710Z,0.87
2023-03-27T21:04:45.890Z,0.80
2023-03-27T21:07:15.247Z,0.73
2023-03-27T21:09:46.016Z,0.68
2023-03-27T21:12:14.712Z,0.66
2023-03-27T21:14:43.523Z,0.64
2023-03-27T21:17:13.476Z,0.60
2023-03-27T21:19:42.004Z,0.54
2023-03-27T21:22:10.731Z,0.52
2023-03-27T21:24:41.250Z,0.46
2023-03-27T21:27:10.095Z,0.43
2023-03-27T21:29:38.932Z,0.39
2023-03-27T21:32:08.625Z,0.34
2023-03-27T21:34:37.377Z,0.30
2023-03-27T21:37:06.085Z,0.26
2023-03-27T21:39:34.843Z,0.18
2023-03-27T21:42:03.726Z,0.14
2023-03-27T21:44:32.430Z,0.12
2023-03-27T21:47:01.101Z,0.12
2023-03-27T21:49:29.923Z,0.10
2023-03-27T21:51:58.589Z,0.09
2023-03-27T21:54:27.232Z,0.08
2023-03-27T21:56:55.933Z,0.05
2023-03-27T21:59:24.749Z,0.04
2023-03-27T22:01:54.805Z,0.04
2023-03-27T22:04:23.700Z,0.06
2023-03-27T22:06:52.401Z,0.09
2023-03-27T22:09:21.332Z,0.13
2023-03-27T22:11:50.017Z,0.14
2023-03-27T22:14:18.730Z,0.15
2023-03-27T22:16:47.638Z,0.16
2023-03-27T22:19:16.275Z,0.17
2023-03-27T22:21:45.064Z,0.16
2023-03-27T22:24:13.797Z,0.14
2023-03-27T22:26:42.410Z,0.13
2023-03-27T22:29:11.288Z,0.13
2023-03-27T22:31:40.228Z,0.11
2023-03-27T22:34:08.834Z,0.09
2023-03-27T22:36:37.761Z,0.07
2023-03-27T22:39:06.352Z,0.09
2023-03-27T22:41:35.220Z,0.11
2023-03-27T22:44:04.011Z,0.10
2023-03-27T22:46:33.489Z,0.08
2023-03-27T22:49:02.377Z,0.04
2023-03-27T22:51:31.351Z,-0.00
2023-03-27T22:54:00.210Z,-0.03
2023-03-27T22:56:29.176Z,-0.07
2023-03-27T22:58:57.787Z,-0.10
2023-03-27T23:01:26.553Z,-0.11
2023-03-27T23:03:55.304Z,-0.09
2023-03-27T23:06:25.115Z,-0.06
2023-03-27T23:08:54.162Z,-0.02
2023-03-27T23:11:23.074Z,0.01
2023-03-27T23:13:51.791Z,-0.01
2023-03-27T23:16:20.409Z,-0.07
2023-03-27T23:18:49.069Z,-0.11
2023-03-27T23:21:18.169Z,-0.15
2023-03-27T23:23:47.073Z,-0.19
2023-03-27T23:26:17.488Z,-0.22
2023-03-27T23:28:46.157Z,-0.24
2023-03-27T23:31:16.904Z,-0.23
2023-03-27T23:33:48.134Z,-0.21
2023-03-27T23:36:18.854Z,-0.19
2023-03-27T23:38:47.931Z,-0.18
2023-03-27T23:41:16.929Z,-0.17
2023-03-27T23:43:45.741Z,-0.17
2023-03-27T23:46:14.877Z,-0.18
2023-03-27T23:48:44.756Z,-0.19
2023-03-27T23:51:15.329Z,-0.20
2023-03-27T23:53:44.355Z,-0.20
2023-03-27T23:56:13.123Z,-0.21
2023-03-27T23:58:42.105Z,-0.21
